FW6896 Weather Reports


Display with metric or nautical units.
time (UTC)temp
F
wind
direction
speed
MPH
gust
MPH
rain 1hr
in
rain 24hr
in
rain mn
in
humidity
%
barometer
mb
20200715054206 61 307 2.0 5.0 0.00 0.00 0.00 77 1013.3
20200715053203 61 313 2.0 3.0 0.00 0.00 0.00 76 1013.3
20200715052202 61 314 2.0 3.0 0.00 0.00 0.00 79 1013.3
20200715051202 61 309 2.0 3.0 0.00 0.00 0.00 76 1013.3
20200715050200 61 311 2.0 4.0 0.00 0.00 0.00 76 1013.3
20200715045159 61 310 2.0 3.0 0.00 0.00 0.00 75 1013.3
20200715044158 62 280 1.0 3.0 0.00 0.00 0.00 74 1013.3
20200715043157 61 271 2.0 4.0 0.00 0.00 0.00 75 1013.2
20200715042157 61 311 1.0 4.0 0.00 0.00 0.00 75 1013.2
20200715041156 61 262 2.0 3.0 0.00 0.00 0.00 75 1013.2
20200715040155 61 309 2.0 4.0 0.00 0.00 0.00 75 1013.2
20200715035154 61 302 1.0 3.0 0.00 0.00 0.00 74 1013.2
20200715034153 61 294 3.0 6.0 0.00 0.00 0.00 75 1013.2
20200715033153 61 305 2.0 4.0 0.00 0.00 0.00 74 1013.1
20200715032152 61 297 3.0 5.0 0.00 0.00 0.00 75 1013.2
20200715031151 61 301 3.0 4.0 0.00 0.00 0.00 74 1013.2
20200715030155 61 306 4.0 6.0 0.00 0.00 0.00 75 1013.2
20200715025153 61 308 3.0 6.0 0.00 0.00 0.00 74 1013.2
20200715024149 61 311 3.0 6.0 0.00 0.00 0.00 73 1013.1
20200714201616 72 272 3.0 6.0 0.00 0.00 0.00 51 1013.8
20200714200615 72 294 4.0 8.0 0.00 0.00 0.00 51 1013.9
20200714195614 71 299 4.0 6.0 0.00 0.00 0.00 52 1013.8
20200714194613 72 306 3.0 5.0 0.00 0.00 0.00 49 1013.8
20200714193613 71 310 4.0 7.0 0.00 0.00 0.00 52 1013.8
20200714192612 71 284 3.0 7.0 0.00 0.00 0.00 53 1013.9
20200714191611 71 309 4.0 7.0 0.00 0.00 0.00 52 1013.9
20200714190609 71 308 5.0 7.0 0.00 0.00 0.00 52 1013.8
20200714185611 71 265 3.0 7.0 0.00 0.00 0.00 51 1013.7
20200714184608 73 302 3.0 6.0 0.00 0.00 0.00 49 1013.8
20200714183607 72 309 3.0 4.0 0.00 0.00 0.00 49 1013.7
20200714111030 59 169 2.0 4.0 0.00 0.00 0.00 74 1011.6
20200714110051 59 177 2.0 4.0 0.00 0.00 0.00 74 1011.5
20200714105029 59 166 2.0 5.0 0.00 0.00 0.00 74 1011.6
20200714104028 59 157 2.0 5.0 0.00 0.00 0.00 74 1011.6